sensor_id;sensor_type;location;lat;lon;timestamp;temperature;humidity
16118;DHT22;8163;50.118;5.342;2022-10-16T00:00:45;12.80;99.90
16118;DHT22;8163;50.118;5.342;2022-10-16T00:03:12;12.70;99.90
16118;DHT22;8163;50.118;5.342;2022-10-16T00:05:41;12.70;99.90
16118;DHT22;8163;50.118;5.342;2022-10-16T00:08:10;12.70;99.90
16118;DHT22;8163;50.118;5.342;2022-10-16T00:10:37;12.70;99.90
16118;DHT22;8163;50.118;5.342;2022-10-16T00:13:06;12.70;99.90
16118;DHT22;8163;50.118;5.342;2022-10-16T00:15:33;12.70;99.90
16118;DHT22;8163;50.118;5.342;2022-10-16T00:18:03;12.70;99.90
16118;DHT22;8163;50.118;5.342;2022-10-16T00:20:30;12.60;99.90
16118;DHT22;8163;50.118;5.342;2022-10-16T00:22:59;12.70;99.90
16118;DHT22;8163;50.118;5.342;2022-10-16T00:25:26;12.70;99.90
16118;DHT22;8163;50.118;5.342;2022-10-16T00:27:52;12.70;99.90
16118;DHT22;8163;50.118;5.342;2022-10-16T00:30:21;12.70;99.90
16118;DHT22;8163;50.118;5.342;2022-10-16T00:32:48;12.70;99.90
16118;DHT22;8163;50.118;5.342;2022-10-16T00:35:16;12.70;99.90
16118;DHT22;8163;50.118;5.342;2022-10-16T00:37:43;12.70;99.90
16118;DHT22;8163;50.118;5.342;2022-10-16T00:40:10;12.70;99.90
16118;DHT22;8163;50.118;5.342;2022-10-16T00:42:37;12.70;99.90
16118;DHT22;8163;50.118;5.342;2022-10-16T00:45:05;12.70;99.90
16118;DHT22;8163;50.118;5.342;2022-10-16T00:47:35;12.70;99.90
16118;DHT22;8163;50.118;5.342;2022-10-16T00:50:08;12.70;99.90
16118;DHT22;8163;50.118;5.342;2022-10-16T00:52:35;12.70;99.90
16118;DHT22;8163;50.118;5.342;2022-10-16T00:55:05;12.70;99.90
16118;DHT22;8163;50.118;5.342;2022-10-16T00:57:33;12.70;99.90
16118;DHT22;8163;50.118;5.342;2022-10-16T01:00:00;12.70;99.90
16118;DHT22;8163;50.118;5.342;2022-10-16T01:02:28;12.70;99.90
16118;DHT22;8163;50.118;5.342;2022-10-16T01:04:56;12.70;99.90
16118;DHT22;8163;50.118;5.342;2022-10-16T01:07:36;12.70;99.90
16118;DHT22;8163;50.118;5.342;2022-10-16T01:10:14;12.70;99.90
16118;DHT22;8163;50.118;5.342;2022-10-16T01:12:46;12.70;99.90
16118;DHT22;8163;50.118;5.342;2022-10-16T01:15:19;12.80;99.90
16118;DHT22;8163;50.118;5.342;2022-10-16T01:17:53;12.70;99.90
16118;DHT22;8163;50.118;5.342;2022-10-16T01:20:29;12.80;99.90
16118;DHT22;8163;50.118;5.342;2022-10-16T01:23:04;12.80;99.90
16118;DHT22;8163;50.118;5.342;2022-10-16T01:25:43;12.80;99.90
16118;DHT22;8163;50.118;5.342;2022-10-16T01:28:19;12.80;99.90
16118;DHT22;8163;50.118;5.342;2022-10-16T01:30:52;12.80;99.90
16118;DHT22;8163;50.118;5.342;2022-10-16T01:33:26;12.80;99.90
16118;DHT22;8163;50.118;5.342;2022-10-16T01:35:58;12.90;99.90
16118;DHT22;8163;50.118;5.342;2022-10-16T01:38:29;12.90;99.90
16118;DHT22;8163;50.118;5.342;2022-10-16T01:41:07;12.90;99.90
16118;DHT22;8163;50.118;5.342;2022-10-16T01:43:38;12.90;99.90
16118;DHT22;8163;50.118;5.342;2022-10-16T01:46:08;12.90;99.90
16118;DHT22;8163;50.118;5.342;2022-10-16T01:48:35;12.90;99.90
16118;DHT22;8163;50.118;5.342;2022-10-16T01:51:05;12.90;99.90
16118;DHT22;8163;50.118;5.342;2022-10-16T01:53:34;13.00;99.90
16118;DHT22;8163;50.118;5.342;2022-10-16T01:56:02;13.00;99.90
16118;DHT22;8163;50.118;5.342;2022-10-16T01:58:33;12.90;99.90
16118;DHT22;8163;50.118;5.342;2022-10-16T02:01:04;13.00;99.90
16118;DHT22;8163;50.118;5.342;2022-10-16T02:03:35;13.00;99.90
16118;DHT22;8163;50.118;5.342;2022-10-16T02:06:03;12.90;99.90
16118;DHT22;8163;50.118;5.342;2022-10-16T02:08:30;13.00;99.90
16118;DHT22;8163;50.118;5.342;2022-10-16T02:10:58;13.00;99.90
16118;DHT22;8163;50.118;5.342;2022-10-16T02:13:30;13.00;99.90
16118;DHT22;8163;50.118;5.342;2022-10-16T02:15:58;13.00;99.90
16118;DHT22;8163;50.118;5.342;2022-10-16T02:18:26;13.00;99.90
16118;DHT22;8163;50.118;5.342;2022-10-16T02:20:58;13.00;99.90
16118;DHT22;8163;50.118;5.342;2022-10-16T02:23:32;13.00;99.90
16118;DHT22;8163;50.118;5.342;2022-10-16T02:26:03;13.00;99.90
16118;DHT22;8163;50.118;5.342;2022-10-16T02:28:35;13.00;99.90
16118;DHT22;8163;50.118;5.342;2022-10-16T02:31:07;13.10;99.90
16118;DHT22;8163;50.118;5.342;2022-10-16T02:33:37;13.00;99.90
16118;DHT22;8163;50.118;5.342;2022-10-16T02:36:06;13.10;99.90
16118;DHT22;8163;50.118;5.342;2022-10-16T02:38:34;13.00;99.90
16118;DHT22;8163;50.118;5.342;2022-10-16T02:41:02;13.00;99.90
16118;DHT22;8163;50.118;5.342;2022-10-16T02:43:29;13.00;99.90
16118;DHT22;8163;50.118;5.342;2022-10-16T02:45:57;13.00;99.90
16118;DHT22;8163;50.118;5.342;2022-10-16T02:48:24;13.00;99.90
16118;DHT22;8163;50.118;5.342;2022-10-16T02:50:54;13.00;99.90
16118;DHT22;8163;50.118;5.342;2022-10-16T02:53:21;13.00;99.90
16118;DHT22;8163;50.118;5.342;2022-10-16T02:55:47;13.00;99.90
16118;DHT22;8163;50.118;5.342;2022-10-16T02:58:14;13.00;99.90
16118;DHT22;8163;50.118;5.342;2022-10-16T03:00:41;13.00;99.90
16118;DHT22;8163;50.118;5.342;2022-10-16T03:03:08;13.00;99.90
16118;DHT22;8163;50.118;5.342;2022-10-16T03:05:35;13.00;99.90
16118;DHT22;8163;50.118;5.342;2022-10-16T03:08:03;13.00;99.90
16118;DHT22;8163;50.118;5.342;2022-10-16T03:10:31;13.00;99.90
16118;DHT22;8163;50.118;5.342;2022-10-16T03:12:58;13.00;99.90
16118;DHT22;8163;50.118;5.342;2022-10-16T03:15:25;13.00;99.90
16118;DHT22;8163;50.118;5.342;2022-10-16T03:17:53;13.00;99.90
16118;DHT22;8163;50.118;5.342;2022-10-16T03:20:20;12.90;99.90
16118;DHT22;8163;50.118;5.342;2022-10-16T03:22:47;12.90;99.90
16118;DHT22;8163;50.118;5.342;2022-10-16T03:25:15;12.90;99.90
16118;DHT22;8163;50.118;5.342;2022-10-16T03:27:42;12.90;99.90
16118;DHT22;8163;50.118;5.342;2022-10-16T03:30:10;12.90;99.90
16118;DHT22;8163;50.118;5.342;2022-10-16T03:32:37;12.90;99.90
16118;DHT22;8163;50.118;5.342;2022-10-16T03:35:05;12.90;99.90
16118;DHT22;8163;50.118;5.342;2022-10-16T03:37:32;12.90;99.90
16118;DHT22;8163;50.118;5.342;2022-10-16T03:39:59;12.90;99.90
16118;DHT22;8163;50.118;5.342;2022-10-16T03:42:27;12.90;99.90
16118;DHT22;8163;50.118;5.342;2022-10-16T03:44:54;12.90;99.90
16118;DHT22;8163;50.118;5.342;2022-10-16T03:47:21;12.90;99.90
16118;DHT22;8163;50.118;5.342;2022-10-16T03:49:49;12.90;99.90
16118;DHT22;8163;50.118;5.342;2022-10-16T03:52:17;12.90;99.90
16118;DHT22;8163;50.118;5.342;2022-10-16T03:54:45;12.90;99.90
16118;DHT22;8163;50.118;5.342;2022-10-16T03:57:12;12.90;99.90
16118;DHT22;8163;50.118;5.342;2022-10-16T03:59:40;13.00;99.90
16118;DHT22;8163;50.118;5.342;2022-10-16T04:02:07;12.90;99.90
16118;DHT22;8163;50.118;5.342;2022-10-16T04:04:34;12.90;99.90
16118;DHT22;8163;50.118;5.342;2022-10-16T04:07:01;12.90;99.90
16118;DHT22;8163;50.118;5.342;2022-10-16T04:09:28;12.90;99.90
16118;DHT22;8163;50.118;5.342;2022-10-16T04:11:55;12.90;99.90
16118;DHT22;8163;50.118;5.342;2022-10-16T04:14:22;12.90;99.90
16118;DHT22;8163;50.118;5.342;2022-10-16T04:16:50;13.00;99.90
16118;DHT22;8163;50.118;5.342;2022-10-16T04:19:17;13.00;99.90
16118;DHT22;8163;50.118;5.342;2022-10-16T04:21:44;12.90;99.90
16118;DHT22;8163;50.118;5.342;2022-10-16T04:24:11;12.90;99.90
16118;DHT22;8163;50.118;5.342;2022-10-16T04:26:38;13.00;99.90
16118;DHT22;8163;50.118;5.342;2022-10-16T04:29:05;13.00;99.90
16118;DHT22;8163;50.118;5.342;2022-10-16T04:31:32;12.90;99.90
16118;DHT22;8163;50.118;5.342;2022-10-16T04:34:00;12.90;99.90
16118;DHT22;8163;50.118;5.342;2022-10-16T04:36:27;12.90;99.90
16118;DHT22;8163;50.118;5.342;2022-10-16T04:38:54;13.00;99.90
16118;DHT22;8163;50.118;5.342;2022-10-16T04:41:21;12.90;99.90
16118;DHT22;8163;50.118;5.342;2022-10-16T04:43:48;13.00;99.90
16118;DHT22;8163;50.118;5.342;2022-10-16T04:46:15;12.90;99.90
16118;DHT22;8163;50.118;5.342;2022-10-16T04:48:42;12.90;99.90
16118;DHT22;8163;50.118;5.342;2022-10-16T04:51:10;12.90;99.90
16118;DHT22;8163;50.118;5.342;2022-10-16T04:53:37;13.00;99.90
16118;DHT22;8163;50.118;5.342;2022-10-16T04:56:04;12.90;99.90
16118;DHT22;8163;50.118;5.342;2022-10-16T04:58:31;12.90;99.90
16118;DHT22;8163;50.118;5.342;2022-10-16T05:00:58;12.90;99.90
16118;DHT22;8163;50.118;5.342;2022-10-16T05:03:25;13.00;99.90
16118;DHT22;8163;50.118;5.342;2022-10-16T05:05:52;13.00;99.90
16118;DHT22;8163;50.118;5.342;2022-10-16T05:08:20;13.00;99.90
16118;DHT22;8163;50.118;5.342;2022-10-16T05:10:47;13.00;99.90
16118;DHT22;8163;50.118;5.342;2022-10-16T05:13:14;13.00;99.90
16118;DHT22;8163;50.118;5.342;2022-10-16T05:15:41;13.00;99.90
16118;DHT22;8163;50.118;5.342;2022-10-16T05:18:08;13.00;99.90
16118;DHT22;8163;50.118;5.342;2022-10-16T05:20:35;13.10;99.90
16118;DHT22;8163;50.118;5.342;2022-10-16T05:23:02;13.00;99.90
16118;DHT22;8163;50.118;5.342;2022-10-16T05:25:30;13.00;99.90
16118;DHT22;8163;50.118;5.342;2022-10-16T05:27:57;13.00;99.90
16118;DHT22;8163;50.118;5.342;2022-10-16T05:30:24;13.10;99.90
16118;DHT22;8163;50.118;5.342;2022-10-16T05:32:51;13.00;99.90
16118;DHT22;8163;50.118;5.342;2022-10-16T05:35:18;13.00;99.90
16118;DHT22;8163;50.118;5.342;2022-10-16T05:37:46;13.10;99.90
16118;DHT22;8163;50.118;5.342;2022-10-16T05:40:13;13.10;99.90
16118;DHT22;8163;50.118;5.342;2022-10-16T05:42:41;13.00;99.90
16118;DHT22;8163;50.118;5.342;2022-10-16T05:45:10;13.00;99.90
16118;DHT22;8163;50.118;5.342;2022-10-16T05:47:37;13.00;99.90
16118;DHT22;8163;50.118;5.342;2022-10-16T05:50:05;13.00;99.90
16118;DHT22;8163;50.118;5.342;2022-10-16T05:52:31;13.00;99.90
16118;DHT22;8163;50.118;5.342;2022-10-16T05:54:58;13.00;99.90
16118;DHT22;8163;50.118;5.342;2022-10-16T05:57:25;13.00;99.90
16118;DHT22;8163;50.118;5.342;2022-10-16T05:59:53;13.00;99.90
16118;DHT22;8163;50.118;5.342;2022-10-16T06:02:21;13.00;99.90
16118;DHT22;8163;50.118;5.342;2022-10-16T06:04:48;13.00;99.90
16118;DHT22;8163;50.118;5.342;2022-10-16T06:07:15;13.00;99.90
16118;DHT22;8163;50.118;5.342;2022-10-16T06:09:42;13.00;99.90
16118;DHT22;8163;50.118;5.342;2022-10-16T06:12:09;13.00;99.90
16118;DHT22;8163;50.118;5.342;2022-10-16T06:14:35;12.90;99.90
16118;DHT22;8163;50.118;5.342;2022-10-16T06:17:04;12.90;99.90
16118;DHT22;8163;50.118;5.342;2022-10-16T06:19:31;13.00;99.90
16118;DHT22;8163;50.118;5.342;2022-10-16T06:21:58;13.00;99.90
16118;DHT22;8163;50.118;5.342;2022-10-16T06:24:25;12.90;99.90
16118;DHT22;8163;50.118;5.342;2022-10-16T06:26:52;13.00;99.90
16118;DHT22;8163;50.118;5.342;2022-10-16T06:29:19;13.00;99.90
16118;DHT22;8163;50.118;5.342;2022-10-16T06:31:46;12.90;99.90
16118;DHT22;8163;50.118;5.342;2022-10-16T06:34:14;12.90;99.90
16118;DHT22;8163;50.118;5.342;2022-10-16T06:36:41;13.00;99.90
16118;DHT22;8163;50.118;5.342;2022-10-16T06:39:09;13.10;99.90
16118;DHT22;8163;50.118;5.342;2022-10-16T06:41:36;13.20;99.90
16118;DHT22;8163;50.118;5.342;2022-10-16T06:44:05;13.30;99.90
16118;DHT22;8163;50.118;5.342;2022-10-16T06:46:33;13.40;99.90
16118;DHT22;8163;50.118;5.342;2022-10-16T06:49:00;13.50;99.90
16118;DHT22;8163;50.118;5.342;2022-10-16T06:51:29;13.50;99.90
16118;DHT22;8163;50.118;5.342;2022-10-16T06:53:57;13.50;99.90
16118;DHT22;8163;50.118;5.342;2022-10-16T06:56:27;13.50;99.90
16118;DHT22;8163;50.118;5.342;2022-10-16T06:58:55;13.40;99.90
16118;DHT22;8163;50.118;5.342;2022-10-16T07:01:23;13.40;99.90
16118;DHT22;8163;50.118;5.342;2022-10-16T07:03:50;13.30;99.90
16118;DHT22;8163;50.118;5.342;2022-10-16T07:06:21;13.30;99.90
16118;DHT22;8163;50.118;5.342;2022-10-16T07:08:50;13.30;99.90
16118;DHT22;8163;50.118;5.342;2022-10-16T07:11:19;13.30;99.90
16118;DHT22;8163;50.118;5.342;2022-10-16T07:13:46;13.30;99.90
16118;DHT22;8163;50.118;5.342;2022-10-16T07:16:15;13.30;99.90
16118;DHT22;8163;50.118;5.342;2022-10-16T07:18:44;13.30;99.90
16118;DHT22;8163;50.118;5.342;2022-10-16T07:21:14;13.30;99.90
16118;DHT22;8163;50.118;5.342;2022-10-16T07:23:42;13.30;99.90
16118;DHT22;8163;50.118;5.342;2022-10-16T07:26:11;13.30;99.90
16118;DHT22;8163;50.118;5.342;2022-10-16T07:28:38;13.30;99.90
16118;DHT22;8163;50.118;5.342;2022-10-16T07:31:09;13.30;99.90
16118;DHT22;8163;50.118;5.342;2022-10-16T07:33:38;13.40;99.90
16118;DHT22;8163;50.118;5.342;2022-10-16T07:36:05;13.50;99.90
16118;DHT22;8163;50.118;5.342;2022-10-16T07:38:32;13.60;99.90
16118;DHT22;8163;50.118;5.342;2022-10-16T07:41:00;13.60;99.90
16118;DHT22;8163;50.118;5.342;2022-10-16T07:43:29;13.70;99.90
16118;DHT22;8163;50.118;5.342;2022-10-16T07:45:56;13.80;99.90
16118;DHT22;8163;50.118;5.342;2022-10-16T07:48:26;14.10;99.90
16118;DHT22;8163;50.118;5.342;2022-10-16T07:50:57;15.00;99.90
16118;DHT22;8163;50.118;5.342;2022-10-16T07:53:24;15.70;99.90
16118;DHT22;8163;50.118;5.342;2022-10-16T07:55:51;15.60;99.90
16118;DHT22;8163;50.118;5.342;2022-10-16T07:58:17;15.50;99.90
16118;DHT22;8163;50.118;5.342;2022-10-16T08:00:46;15.60;99.90
16118;DHT22;8163;50.118;5.342;2022-10-16T08:03:13;16.00;99.90
16118;DHT22;8163;50.118;5.342;2022-10-16T08:05:40;16.30;99.90
16118;DHT22;8163;50.118;5.342;2022-10-16T08:08:12;16.00;99.90
16118;DHT22;8163;50.118;5.342;2022-10-16T08:10:40;15.60;99.90
16118;DHT22;8163;50.118;5.342;2022-10-16T08:13:07;15.40;99.90
16118;DHT22;8163;50.118;5.342;2022-10-16T08:15:34;15.10;99.90
16118;DHT22;8163;50.118;5.342;2022-10-16T08:18:04;15.10;99.90
16118;DHT22;8163;50.118;5.342;2022-10-16T08:20:32;15.00;99.90
16118;DHT22;8163;50.118;5.342;2022-10-16T08:23:00;14.90;99.90
16118;DHT22;8163;50.118;5.342;2022-10-16T08:25:27;14.90;99.90
16118;DHT22;8163;50.118;5.342;2022-10-16T08:27:54;14.90;99.90
16118;DHT22;8163;50.118;5.342;2022-10-16T08:30:23;15.00;99.90
16118;DHT22;8163;50.118;5.342;2022-10-16T08:32:50;15.30;99.90
16118;DHT22;8163;50.118;5.342;2022-10-16T08:35:19;15.40;99.90
16118;DHT22;8163;50.118;5.342;2022-10-16T08:37:46;15.60;99.90
16118;DHT22;8163;50.118;5.342;2022-10-16T08:40:17;15.80;99.90
16118;DHT22;8163;50.118;5.342;2022-10-16T08:43:07;15.80;99.90
16118;DHT22;8163;50.118;5.342;2022-10-16T08:45:47;15.90;99.90
16118;DHT22;8163;50.118;5.342;2022-10-16T08:48:20;16.00;99.90
16118;DHT22;8163;50.118;5.342;2022-10-16T08:50:51;16.20;99.90
16118;DHT22;8163;50.118;5.342;2022-10-16T08:53:23;16.20;99.90
16118;DHT22;8163;50.118;5.342;2022-10-16T08:55:52;16.40;99.90
16118;DHT22;8163;50.118;5.342;2022-10-16T08:58:21;16.60;99.90
16118;DHT22;8163;50.118;5.342;2022-10-16T09:00:55;17.00;99.90
16118;DHT22;8163;50.118;5.342;2022-10-16T09:03:33;17.90;99.90
16118;DHT22;8163;50.118;5.342;2022-10-16T09:06:30;18.30;99.90
16118;DHT22;8163;50.118;5.342;2022-10-16T09:09:17;20.10;99.90
16118;DHT22;8163;50.118;5.342;2022-10-16T09:11:50;22.00;99.90
16118;DHT22;8163;50.118;5.342;2022-10-16T09:14:33;23.30;99.90
16118;DHT22;8163;50.118;5.342;2022-10-16T09:17:12;24.20;99.90
16118;DHT22;8163;50.118;5.342;2022-10-16T09:19:46;24.90;99.90
16118;DHT22;8163;50.118;5.342;2022-10-16T09:22:17;25.20;99.90
16118;DHT22;8163;50.118;5.342;2022-10-16T09:24:45;25.50;99.90
16118;DHT22;8163;50.118;5.342;2022-10-16T09:27:12;25.20;99.90
16118;DHT22;8163;50.118;5.342;2022-10-16T09:29:40;23.90;99.90
16118;DHT22;8163;50.118;5.342;2022-10-16T09:32:12;24.50;99.90
16118;DHT22;8163;50.118;5.342;2022-10-16T09:34:42;25.10;99.90
16118;DHT22;8163;50.118;5.342;2022-10-16T09:37:13;25.30;99.90
16118;DHT22;8163;50.118;5.342;2022-10-16T09:39:46;25.30;99.90
16118;DHT22;8163;50.118;5.342;2022-10-16T09:42:16;25.80;99.90
16118;DHT22;8163;50.118;5.342;2022-10-16T09:44:47;26.40;99.90
16118;DHT22;8163;50.118;5.342;2022-10-16T09:47:18;27.10;99.90
16118;DHT22;8163;50.118;5.342;2022-10-16T09:49:53;27.70;99.90
16118;DHT22;8163;50.118;5.342;2022-10-16T09:52:24;28.10;95.10
16118;DHT22;8163;50.118;5.342;2022-10-16T09:54:55;28.20;93.10
16118;DHT22;8163;50.118;5.342;2022-10-16T09:57:23;28.20;90.60
16118;DHT22;8163;50.118;5.342;2022-10-16T09:59:52;28.00;87.90
16118;DHT22;8163;50.118;5.342;2022-10-16T10:02:23;27.90;86.20
16118;DHT22;8163;50.118;5.342;2022-10-16T10:04:55;27.90;83.90
16118;DHT22;8163;50.118;5.342;2022-10-16T10:07:25;27.30;82.30
16118;DHT22;8163;50.118;5.342;2022-10-16T10:09:55;27.20;81.70
16118;DHT22;8163;50.118;5.342;2022-10-16T10:12:25;27.60;80.40
16118;DHT22;8163;50.118;5.342;2022-10-16T10:14:53;28.00;79.10
16118;DHT22;8163;50.118;5.342;2022-10-16T10:17:22;27.90;78.00
16118;DHT22;8163;50.118;5.342;2022-10-16T10:19:52;27.70;77.10
16118;DHT22;8163;50.118;5.342;2022-10-16T10:22:30;27.00;76.40
16118;DHT22;8163;50.118;5.342;2022-10-16T10:25:19;27.00;74.50
16118;DHT22;8163;50.118;5.342;2022-10-16T10:28:03;27.60;75.20
16118;DHT22;8163;50.118;5.342;2022-10-16T10:30:38;28.30;74.20
16118;DHT22;8163;50.118;5.342;2022-10-16T10:33:14;28.50;74.20
16118;DHT22;8163;50.118;5.342;2022-10-16T10:35:48;28.20;71.60
16118;DHT22;8163;50.118;5.342;2022-10-16T10:38:35;27.50;70.80
16118;DHT22;8163;50.118;5.342;2022-10-16T10:44:18;25.50;70.20
16118;DHT22;8163;50.118;5.342;2022-10-16T10:46:51;26.00;71.80
16118;DHT22;8163;50.118;5.342;2022-10-16T10:49:40;25.80;72.20
16118;DHT22;8163;50.118;5.342;2022-10-16T10:52:28;24.90;70.70
16118;DHT22;8163;50.118;5.342;2022-10-16T10:55:06;24.30;71.10
16118;DHT22;8163;50.118;5.342;2022-10-16T10:57:47;23.60;71.00
16118;DHT22;8163;50.118;5.342;2022-10-16T11:00:21;23.10;72.00
16118;DHT22;8163;50.118;5.342;2022-10-16T11:02:54;22.70;72.50
16118;DHT22;8163;50.118;5.342;2022-10-16T11:05:39;22.30;72.90
16118;DHT22;8163;50.118;5.342;2022-10-16T11:08:11;22.20;73.70
16118;DHT22;8163;50.118;5.342;2022-10-16T11:10:46;22.30;74.60
16118;DHT22;8163;50.118;5.342;2022-10-16T11:13:24;22.60;75.20
16118;DHT22;8163;50.118;5.342;2022-10-16T11:15:55;23.30;76.30
16118;DHT22;8163;50.118;5.342;2022-10-16T11:18:27;23.50;76.20
16118;DHT22;8163;50.118;5.342;2022-10-16T11:21:00;23.70;76.40
16118;DHT22;8163;50.118;5.342;2022-10-16T11:23:30;23.70;76.30
16118;DHT22;8163;50.118;5.342;2022-10-16T11:26:02;23.80;75.50
16118;DHT22;8163;50.118;5.342;2022-10-16T11:28:35;23.40;74.60
16118;DHT22;8163;50.118;5.342;2022-10-16T11:31:08;23.10;75.80
16118;DHT22;8163;50.118;5.342;2022-10-16T11:33:41;23.00;75.30
16118;DHT22;8163;50.118;5.342;2022-10-16T11:36:14;22.80;75.30
16118;DHT22;8163;50.118;5.342;2022-10-16T11:38:49;22.70;75.10
16118;DHT22;8163;50.118;5.342;2022-10-16T11:41:23;22.70;75.50
16118;DHT22;8163;50.118;5.342;2022-10-16T11:44:12;22.80;75.40
16118;DHT22;8163;50.118;5.342;2022-10-16T11:46:44;22.90;75.80
16118;DHT22;8163;50.118;5.342;2022-10-16T11:49:14;22.80;76.40
16118;DHT22;8163;50.118;5.342;2022-10-16T11:51:45;22.70;76.20
16118;DHT22;8163;50.118;5.342;2022-10-16T11:54:21;22.90;76.90
16118;DHT22;8163;50.118;5.342;2022-10-16T11:56:51;23.40;78.00
16118;DHT22;8163;50.118;5.342;2022-10-16T11:59:26;23.80;77.90
16118;DHT22;8163;50.118;5.342;2022-10-16T12:04:45;24.10;77.00
16118;DHT22;8163;50.118;5.342;2022-10-16T12:07:15;23.80;75.80
16118;DHT22;8163;50.118;5.342;2022-10-16T12:09:43;23.70;76.30
16118;DHT22;8163;50.118;5.342;2022-10-16T12:12:25;23.70;76.20
16118;DHT22;8163;50.118;5.342;2022-10-16T12:15:15;23.80;76.50
16118;DHT22;8163;50.118;5.342;2022-10-16T12:17:44;24.10;76.80
16118;DHT22;8163;50.118;5.342;2022-10-16T12:20:29;24.10;76.20
16118;DHT22;8163;50.118;5.342;2022-10-16T12:23:00;23.80;75.50
16118;DHT22;8163;50.118;5.342;2022-10-16T12:25:31;23.70;76.10
16118;DHT22;8163;50.118;5.342;2022-10-16T12:28:03;23.60;75.90
16118;DHT22;8163;50.118;5.342;2022-10-16T12:30:34;23.30;75.50
16118;DHT22;8163;50.118;5.342;2022-10-16T12:33:03;23.00;75.50
16118;DHT22;8163;50.118;5.342;2022-10-16T12:35:34;22.60;76.70
16118;DHT22;8163;50.118;5.342;2022-10-16T12:38:07;22.30;76.50
16118;DHT22;8163;50.118;5.342;2022-10-16T12:40:36;22.00;77.70
16118;DHT22;8163;50.118;5.342;2022-10-16T12:43:39;21.70;76.90
16118;DHT22;8163;50.118;5.342;2022-10-16T12:46:24;21.40;78.20
16118;DHT22;8163;50.118;5.342;2022-10-16T12:49:21;21.50;78.60
16118;DHT22;8163;50.118;5.342;2022-10-16T12:51:48;22.50;80.80
16118;DHT22;8163;50.118;5.342;2022-10-16T12:54:17;23.30;81.00
16118;DHT22;8163;50.118;5.342;2022-10-16T12:56:58;23.10;78.90
16118;DHT22;8163;50.118;5.342;2022-10-16T12:59:38;22.60;78.40
16118;DHT22;8163;50.118;5.342;2022-10-16T13:02:49;22.10;78.50
16118;DHT22;8163;50.118;5.342;2022-10-16T13:05:32;21.70;78.90
16118;DHT22;8163;50.118;5.342;2022-10-16T13:08:15;21.30;79.20
16118;DHT22;8163;50.118;5.342;2022-10-16T13:10:55;21.00;80.30
16118;DHT22;8163;50.118;5.342;2022-10-16T13:13:43;20.80;80.00
16118;DHT22;8163;50.118;5.342;2022-10-16T13:16:21;20.60;81.40
16118;DHT22;8163;50.118;5.342;2022-10-16T13:18:59;20.40;81.00
16118;DHT22;8163;50.118;5.342;2022-10-16T13:21:38;20.30;81.50
16118;DHT22;8163;50.118;5.342;2022-10-16T13:24:16;20.20;82.00
16118;DHT22;8163;50.118;5.342;2022-10-16T13:26:49;20.10;82.50
16118;DHT22;8163;50.118;5.342;2022-10-16T13:29:19;20.10;82.90
16118;DHT22;8163;50.118;5.342;2022-10-16T13:31:46;20.00;83.10
16118;DHT22;8163;50.118;5.342;2022-10-16T13:34:17;19.90;83.70
16118;DHT22;8163;50.118;5.342;2022-10-16T13:36:47;19.90;84.40
16118;DHT22;8163;50.118;5.342;2022-10-16T13:39:21;19.90;84.50
16118;DHT22;8163;50.118;5.342;2022-10-16T13:42:01;19.80;84.80
16118;DHT22;8163;50.118;5.342;2022-10-16T13:44:39;19.70;85.30
16118;DHT22;8163;50.118;5.342;2022-10-16T13:47:16;19.70;85.70
16118;DHT22;8163;50.118;5.342;2022-10-16T13:49:46;19.70;85.70
16118;DHT22;8163;50.118;5.342;2022-10-16T13:52:18;19.60;86.20
16118;DHT22;8163;50.118;5.342;2022-10-16T13:54:46;19.50;86.80
16118;DHT22;8163;50.118;5.342;2022-10-16T13:57:14;19.50;86.90
16118;DHT22;8163;50.118;5.342;2022-10-16T13:59:41;19.40;87.10
16118;DHT22;8163;50.118;5.342;2022-10-16T14:02:18;19.30;87.50
16118;DHT22;8163;50.118;5.342;2022-10-16T14:04:48;19.30;88.20
16118;DHT22;8163;50.118;5.342;2022-10-16T14:07:22;19.10;88.30
16118;DHT22;8163;50.118;5.342;2022-10-16T14:09:50;19.10;89.10
16118;DHT22;8163;50.118;5.342;2022-10-16T14:12:19;19.00;89.50
16118;DHT22;8163;50.118;5.342;2022-10-16T14:14:48;18.90;90.00
16118;DHT22;8163;50.118;5.342;2022-10-16T14:17:20;18.80;90.70
16118;DHT22;8163;50.118;5.342;2022-10-16T14:19:54;18.80;91.40
16118;DHT22;8163;50.118;5.342;2022-10-16T14:22:28;18.70;92.30
16118;DHT22;8163;50.118;5.342;2022-10-16T14:24:58;18.60;93.20
16118;DHT22;8163;50.118;5.342;2022-10-16T14:27:29;18.50;94.50
16118;DHT22;8163;50.118;5.342;2022-10-16T14:30:14;18.50;95.80
16118;DHT22;8163;50.118;5.342;2022-10-16T14:32:52;18.40;97.30
16118;DHT22;8163;50.118;5.342;2022-10-16T14:35:25;18.40;98.10
16118;DHT22;8163;50.118;5.342;2022-10-16T14:37:53;18.40;99.70
16118;DHT22;8163;50.118;5.342;2022-10-16T14:40:23;18.30;99.90
16118;DHT22;8163;50.118;5.342;2022-10-16T14:42:51;18.40;99.90
16118;DHT22;8163;50.118;5.342;2022-10-16T14:45:20;18.30;99.90
16118;DHT22;8163;50.118;5.342;2022-10-16T14:47:50;18.30;99.90
16118;DHT22;8163;50.118;5.342;2022-10-16T14:50:17;18.20;99.90
16118;DHT22;8163;50.118;5.342;2022-10-16T14:52:46;18.10;99.90
16118;DHT22;8163;50.118;5.342;2022-10-16T14:55:15;18.00;99.90
16118;DHT22;8163;50.118;5.342;2022-10-16T14:57:43;18.00;99.90
16118;DHT22;8163;50.118;5.342;2022-10-16T15:36:51;17.70;98.40
16118;DHT22;8163;50.118;5.342;2022-10-16T15:39:21;17.70;99.90
16118;DHT22;8163;50.118;5.342;2022-10-16T15:41:48;17.60;99.90
16118;DHT22;8163;50.118;5.342;2022-10-16T15:44:17;17.60;99.90
16118;DHT22;8163;50.118;5.342;2022-10-16T15:46:44;17.60;99.90
16118;DHT22;8163;50.118;5.342;2022-10-16T15:49:11;17.50;99.90
16118;DHT22;8163;50.118;5.342;2022-10-16T15:51:40;17.50;99.90
16118;DHT22;8163;50.118;5.342;2022-10-16T15:54:09;17.50;99.90
16118;DHT22;8163;50.118;5.342;2022-10-16T15:56:36;17.50;99.90
16118;DHT22;8163;50.118;5.342;2022-10-16T15:59:04;17.50;99.90
16118;DHT22;8163;50.118;5.342;2022-10-16T16:01:32;17.50;99.90
16118;DHT22;8163;50.118;5.342;2022-10-16T16:03:59;17.50;99.90
16118;DHT22;8163;50.118;5.342;2022-10-16T16:06:26;17.50;99.90
16118;DHT22;8163;50.118;5.342;2022-10-16T16:08:54;17.40;99.90
16118;DHT22;8163;50.118;5.342;2022-10-16T16:11:22;17.40;99.90
16118;DHT22;8163;50.118;5.342;2022-10-16T16:13:49;17.40;99.90
16118;DHT22;8163;50.118;5.342;2022-10-16T16:16:17;17.40;99.90
16118;DHT22;8163;50.118;5.342;2022-10-16T16:18:45;17.30;99.90
16118;DHT22;8163;50.118;5.342;2022-10-16T16:21:14;17.30;99.90
16118;DHT22;8163;50.118;5.342;2022-10-16T16:23:41;17.30;99.90
16118;DHT22;8163;50.118;5.342;2022-10-16T16:26:11;17.20;99.90
16118;DHT22;8163;50.118;5.342;2022-10-16T16:28:42;17.20;99.90
16118;DHT22;8163;50.118;5.342;2022-10-16T16:31:09;17.20;99.90
16118;DHT22;8163;50.118;5.342;2022-10-16T16:33:36;17.10;99.90
16118;DHT22;8163;50.118;5.342;2022-10-16T16:36:05;17.10;99.90
16118;DHT22;8163;50.118;5.342;2022-10-16T16:38:32;17.00;99.90
16118;DHT22;8163;50.118;5.342;2022-10-16T16:41:10;17.00;99.90
16118;DHT22;8163;50.118;5.342;2022-10-16T16:43:37;16.90;99.90
16118;DHT22;8163;50.118;5.342;2022-10-16T16:46:06;16.90;99.90
16118;DHT22;8163;50.118;5.342;2022-10-16T16:48:33;16.90;99.90